createdAt,value
2023-01-23T00:00:27.220Z,98.71
2023-01-23T00:02:54.502Z,98.87
2023-01-23T00:05:21.856Z,98.96
2023-01-23T00:07:49.275Z,98.47
2023-01-23T00:10:17.067Z,98.58
2023-01-23T00:12:46.095Z,98.70
2023-01-23T00:15:13.975Z,98.56
2023-01-23T00:17:42.099Z,98.73
2023-01-23T00:20:13.422Z,98.60
2023-01-23T00:22:41.013Z,98.46
2023-01-23T00:25:08.670Z,98.45
2023-01-23T00:27:35.966Z,98.49
2023-01-23T00:30:04.666Z,98.18
2023-01-23T00:32:32.046Z,98.24
2023-01-23T00:35:02.649Z,97.93
2023-01-23T00:37:30.012Z,97.98
2023-01-23T00:39:57.361Z,97.79
2023-01-23T00:42:24.833Z,97.74
2023-01-23T00:44:52.167Z,97.83
2023-01-23T00:47:19.459Z,97.82
2023-01-23T00:49:48.702Z,97.73
2023-01-23T00:52:15.975Z,97.63
2023-01-23T00:54:43.451Z,97.73
2023-01-23T00:57:10.852Z,97.68
2023-01-23T00:59:38.184Z,97.54
2023-01-23T01:02:05.514Z,97.66
2023-01-23T01:04:33.039Z,97.38
2023-01-23T01:07:03.494Z,97.67
2023-01-23T01:09:30.957Z,97.44
2023-01-23T01:11:58.703Z,97.48
2023-01-23T01:14:26.000Z,97.58
2023-01-23T01:16:53.393Z,97.62
2023-01-23T01:19:21.252Z,97.32
2023-01-23T01:21:48.518Z,97.42
2023-01-23T01:24:15.944Z,97.60
2023-01-23T01:26:43.365Z,97.52
2023-01-23T01:29:10.614Z,97.53
2023-01-23T01:31:37.890Z,97.57
2023-01-23T01:34:05.182Z,97.29
2023-01-23T01:36:32.450Z,97.45
2023-01-23T01:38:59.825Z,97.26
2023-01-23T01:41:27.999Z,97.17
2023-01-23T01:43:57.420Z,97.42
2023-01-23T01:46:27.361Z,97.18
2023-01-23T01:49:15.243Z,97.39
2023-01-23T01:52:14.912Z,97.40
2023-01-23T01:54:46.204Z,97.54
2023-01-23T01:57:38.060Z,97.49
2023-01-23T02:00:10.909Z,97.26
2023-01-23T02:02:49.764Z,97.63
2023-01-23T02:05:30.354Z,97.71
2023-01-23T02:08:05.885Z,98.19
2023-01-23T02:10:35.141Z,97.97
2023-01-23T02:13:31.448Z,98.00
2023-01-23T02:16:01.226Z,97.81
2023-01-23T02:18:31.883Z,98.11
2023-01-23T02:21:05.945Z,98.30
2023-01-23T02:23:48.573Z,98.21
2023-01-23T02:26:27.950Z,98.23
2023-01-23T02:28:56.297Z,98.17
2023-01-23T02:31:27.902Z,98.47
2023-01-23T02:33:58.376Z,98.21
2023-01-23T02:36:27.175Z,98.43
2023-01-23T02:39:09.025Z,98.97
2023-01-23T02:41:41.037Z,98.58
2023-01-23T02:44:32.530Z,98.75
2023-01-23T02:47:08.400Z,98.28
2023-01-23T02:49:35.922Z,98.78
2023-01-23T02:52:06.928Z,99.11
2023-01-23T02:54:36.133Z,99.17
2023-01-23T02:57:03.718Z,99.42
2023-01-23T02:59:50.002Z,99.51
2023-01-23T03:02:17.603Z,99.59
2023-01-23T03:04:44.881Z,99.54
2023-01-23T03:07:12.173Z,99.33
2023-01-23T03:09:39.905Z,99.19
2023-01-23T03:12:07.744Z,99.31
2023-01-23T03:14:35.155Z,99.09
2023-01-23T03:17:02.365Z,99.21
2023-01-23T03:19:34.115Z,99.48
2023-01-23T03:22:01.386Z,98.95
2023-01-23T03:24:28.802Z,99.10
2023-01-23T03:26:56.246Z,99.30
2023-01-23T03:29:45.260Z,99.26
2023-01-23T03:32:15.760Z,99.01
2023-01-23T03:34:44.782Z,99.02
2023-01-23T03:37:12.652Z,99.21
2023-01-23T03:40:01.164Z,99.09
2023-01-23T03:42:28.287Z,99.09
2023-01-23T03:44:57.800Z,99.22
2023-01-23T03:47:28.058Z,99.37
2023-01-23T03:49:55.984Z,99.51
2023-01-23T03:52:24.330Z,98.90
2023-01-23T03:54:51.780Z,98.71
2023-01-23T03:57:19.351Z,98.51
2023-01-23T04:00:05.514Z,98.57
2023-01-23T04:02:45.440Z,98.65
2023-01-23T04:05:14.423Z,98.75
2023-01-23T04:07:41.576Z,98.77
2023-01-23T04:10:10.767Z,98.77
2023-01-23T04:12:39.640Z,98.81
2023-01-23T04:15:08.154Z,99.06
2023-01-23T04:17:35.218Z,98.91
2023-01-23T04:20:04.389Z,98.94
2023-01-23T04:22:32.095Z,98.80
2023-01-23T04:24:59.228Z,99.13
2023-01-23T04:27:26.287Z,99.46
2023-01-23T04:29:55.454Z,99.31
2023-01-23T04:32:22.560Z,99.14
2023-01-23T04:34:49.694Z,99.23
2023-01-23T04:37:17.743Z,98.96
2023-01-23T04:39:45.943Z,98.78
2023-01-23T04:42:13.999Z,99.09
2023-01-23T04:44:52.313Z,98.92
2023-01-23T04:47:39.415Z,98.74
2023-01-23T04:50:10.547Z,98.68
2023-01-23T04:52:39.139Z,98.99
2023-01-23T04:55:06.839Z,98.59
2023-01-23T04:57:33.864Z,98.89
2023-01-23T05:00:20.133Z,98.83
2023-01-23T05:02:48.706Z,98.69
2023-01-23T05:05:21.402Z,98.70
2023-01-23T05:07:51.525Z,98.89
2023-01-23T05:10:19.385Z,99.11
2023-01-23T05:12:48.120Z,99.00
2023-01-23T05:15:15.514Z,99.07
2023-01-23T05:17:44.725Z,99.37
2023-01-23T05:20:13.477Z,99.31
2023-01-23T05:22:52.777Z,98.94
2023-01-23T05:25:27.126Z,99.09
2023-01-23T05:27:55.684Z,98.98
2023-01-23T05:30:23.960Z,98.98
2023-01-23T05:32:55.765Z,98.61
2023-01-23T05:35:22.871Z,99.01
2023-01-23T05:37:53.794Z,99.03
2023-01-23T05:40:23.847Z,98.75
2023-01-23T05:43:23.239Z,98.55
2023-01-23T05:46:17.180Z,98.97
2023-01-23T05:48:51.916Z,98.97
2023-01-23T05:51:21.347Z,98.95
2023-01-23T05:53:48.971Z,99.16
2023-01-23T05:56:17.714Z,99.14
2023-01-23T05:59:05.529Z,98.66
2023-01-23T06:01:58.786Z,99.18
2023-01-23T06:04:55.840Z,98.97
2023-01-23T06:07:37.798Z,99.07
2023-01-23T06:10:09.839Z,99.18
2023-01-23T06:12:37.575Z,99.44
2023-01-23T06:15:05.462Z,99.18
2023-01-23T06:17:32.928Z,99.70
2023-01-23T06:20:00.087Z,99.35
2023-01-23T06:22:28.650Z,99.61
2023-01-23T06:25:11.038Z,99.42
2023-01-23T06:27:38.340Z,99.61
2023-01-23T06:30:08.799Z,99.24
2023-01-23T06:32:41.860Z,99.36
2023-01-23T06:35:10.644Z,99.37
2023-01-23T06:37:40.835Z,99.25
2023-01-23T06:40:13.546Z,99.25
2023-01-23T06:42:45.594Z,99.40
2023-01-23T06:45:13.000Z,99.12
2023-01-23T06:47:40.093Z,99.01
2023-01-23T06:50:08.299Z,98.99
2023-01-23T06:52:37.947Z,99.41
2023-01-23T06:55:06.882Z,99.27
2023-01-23T06:57:35.081Z,99.30
2023-01-23T07:00:03.939Z,99.39
2023-01-23T07:02:32.432Z,99.27
2023-01-23T07:04:59.814Z,98.94
2023-01-23T07:07:27.446Z,98.95
2023-01-23T07:09:54.591Z,99.03
2023-01-23T07:12:24.534Z,98.98
2023-01-23T07:14:51.769Z,98.95
2023-01-23T07:17:24.163Z,99.28
2023-01-23T07:19:51.933Z,99.18
2023-01-23T07:22:21.125Z,99.26
2023-01-23T07:24:48.759Z,99.65
2023-01-23T07:27:15.969Z,99.31
2023-01-23T07:29:43.367Z,99.11
2023-01-23T07:32:11.324Z,99.31
2023-01-23T07:34:38.800Z,98.98
2023-01-23T07:37:06.116Z,98.86
2023-01-23T07:39:33.228Z,99.02
2023-01-23T07:42:00.567Z,98.83
2023-01-23T07:44:28.956Z,98.66
2023-01-23T07:46:57.182Z,98.71
2023-01-23T07:49:24.223Z,98.57
2023-01-23T07:51:51.260Z,98.64
2023-01-23T07:54:18.348Z,98.55
2023-01-23T07:56:45.399Z,98.59
2023-01-23T07:59:13.530Z,98.50
2023-01-23T08:01:40.581Z,98.36
2023-01-23T08:04:07.746Z,98.08
2023-01-23T08:06:34.971Z,97.93
2023-01-23T08:09:02.053Z,97.72
2023-01-23T08:11:29.123Z,98.12
2023-01-23T08:13:56.275Z,98.00
2023-01-23T08:16:23.348Z,98.35
2023-01-23T08:18:50.482Z,98.15
2023-01-23T08:21:17.925Z,98.02
2023-01-23T08:23:46.528Z,97.99
2023-01-23T08:26:16.086Z,98.15
2023-01-23T08:28:45.025Z,98.08
2023-01-23T08:31:13.684Z,97.69
2023-01-23T08:33:41.311Z,97.63
2023-01-23T08:36:11.500Z,98.13
2023-01-23T08:38:38.785Z,97.50
2023-01-23T08:41:06.836Z,97.51
2023-01-23T08:43:34.036Z,97.53
2023-01-23T08:46:01.487Z,97.83
2023-01-23T08:48:29.192Z,97.45
2023-01-23T08:51:01.916Z,97.53
2023-01-23T08:53:30.131Z,97.19
2023-01-23T08:56:04.969Z,97.34
2023-01-23T08:58:32.136Z,97.57
2023-01-23T09:00:59.774Z,97.48
2023-01-23T09:03:27.807Z,97.48
2023-01-23T09:05:55.020Z,96.93
2023-01-23T09:08:21.986Z,97.27
2023-01-23T09:10:49.046Z,97.29
2023-01-23T09:13:16.368Z,97.35
2023-01-23T09:15:43.439Z,97.20
2023-01-23T09:18:10.568Z,97.17
2023-01-23T09:20:38.741Z,97.50
2023-01-23T09:23:05.838Z,97.34
2023-01-23T09:25:32.914Z,97.22
2023-01-23T09:27:59.968Z,97.79
2023-01-23T09:30:27.099Z,97.35
2023-01-23T09:32:54.304Z,97.55
2023-01-23T09:35:23.513Z,97.52
2023-01-23T09:38:00.102Z,97.83
2023-01-23T09:40:30.733Z,97.61
2023-01-23T09:43:03.447Z,97.58
2023-01-23T09:45:32.694Z,97.57
2023-01-23T09:48:23.059Z,97.80
2023-01-23T09:51:16.417Z,97.65
2023-01-23T09:53:43.561Z,97.39
2023-01-23T09:56:31.357Z,97.68
2023-01-23T09:59:01.254Z,98.16
2023-01-23T10:01:31.000Z,97.81
2023-01-23T10:04:02.497Z,97.88
2023-01-23T10:06:32.665Z,97.81
2023-01-23T10:09:28.177Z,98.28
2023-01-23T10:12:13.361Z,97.95
2023-01-23T10:14:58.957Z,97.90
2023-01-23T10:17:44.095Z,98.00
2023-01-23T10:20:20.083Z,98.52
2023-01-23T10:23:08.749Z,98.47
2023-01-23T10:25:40.518Z,98.38
2023-01-23T10:28:38.227Z,98.17
2023-01-23T10:31:16.404Z,98.42
2023-01-23T10:33:48.330Z,98.33
2023-01-23T10:36:47.787Z,98.28
2023-01-23T10:39:25.668Z,98.43
2023-01-23T10:42:01.495Z,98.41
2023-01-23T10:44:29.311Z,98.53
2023-01-23T10:47:03.828Z,98.72
2023-01-23T10:49:35.817Z,98.37
2023-01-23T10:52:03.207Z,98.58
2023-01-23T10:54:32.627Z,98.44
2023-01-23T10:57:03.278Z,98.57
2023-01-23T10:59:35.986Z,98.21
2023-01-23T11:02:15.262Z,98.55
2023-01-23T11:04:44.524Z,98.28
2023-01-23T11:07:23.736Z,98.61
2023-01-23T11:09:56.684Z,98.02
2023-01-23T11:12:29.856Z,97.74
2023-01-23T11:15:26.350Z,97.97
2023-01-23T11:17:56.265Z,97.84
2023-01-23T11:20:36.104Z,97.77
2023-01-23T11:23:09.429Z,97.81
2023-01-23T11:25:48.547Z,97.70
2023-01-23T11:28:34.204Z,97.59
2023-01-23T11:31:14.694Z,97.38
2023-01-23T11:34:05.534Z,97.12
2023-01-23T11:36:58.534Z,96.92
2023-01-23T11:39:36.433Z,96.63
2023-01-23T11:42:04.421Z,96.29
2023-01-23T11:44:45.096Z,96.42
2023-01-23T11:47:40.767Z,96.56
2023-01-23T11:50:54.415Z,96.67
2023-01-23T11:53:41.859Z,96.56
2023-01-23T11:56:44.160Z,96.63
2023-01-23T11:59:53.140Z,96.40
2023-01-23T12:02:32.423Z,96.45
2023-01-23T12:05:06.152Z,96.57
2023-01-23T12:07:48.154Z,96.44
2023-01-23T12:10:22.237Z,96.10
2023-01-23T12:12:50.755Z,96.13
2023-01-23T12:15:42.166Z,96.22
2023-01-23T12:18:57.152Z,95.32
2023-01-23T12:21:44.181Z,95.97
2023-01-23T12:24:47.658Z,96.25
2023-01-23T12:27:27.075Z,95.88
2023-01-23T12:30:12.593Z,95.90
2023-01-23T12:33:12.926Z,96.18
2023-01-23T12:35:48.184Z,96.00
2023-01-23T12:38:40.241Z,96.33
2023-01-23T12:41:10.097Z,96.18
2023-01-23T12:43:55.506Z,96.08
2023-01-23T12:46:34.281Z,95.98
2023-01-23T12:49:13.987Z,96.40
2023-01-23T12:51:46.197Z,96.13
2023-01-23T12:54:20.528Z,96.69
2023-01-23T12:59:30.649Z,96.24
2023-01-23T13:02:30.851Z,95.86
2023-01-23T13:05:07.958Z,96.38
2023-01-23T13:07:56.049Z,95.91
2023-01-23T13:11:03.574Z,95.90
2023-01-23T13:13:31.342Z,96.07
2023-01-23T13:16:09.350Z,95.97
2023-01-23T13:18:57.670Z,96.11
2023-01-23T13:21:43.836Z,96.65
2023-01-23T13:25:12.076Z,96.81
2023-01-23T13:27:42.229Z,96.92
2023-01-23T13:30:27.250Z,96.98
2023-01-23T13:33:00.762Z,96.86
2023-01-23T13:35:40.058Z,96.97
2023-01-23T13:38:37.713Z,97.10
2023-01-23T13:41:04.891Z,97.23
2023-01-23T13:43:54.903Z,97.36
2023-01-23T14:21:56.313Z,98.25
2023-01-23T14:30:20.270Z,98.64
2023-01-23T14:32:47.408Z,98.07
2023-01-23T14:35:32.951Z,98.64
2023-01-23T14:38:05.332Z,98.46
2023-01-23T14:40:46.622Z,98.69
2023-01-23T14:46:13.001Z,98.87
2023-01-23T14:48:43.097Z,98.56
2023-01-23T14:51:30.466Z,98.52
2023-01-23T14:54:02.637Z,98.74
2023-01-23T14:56:36.357Z,98.67
2023-01-23T14:59:07.278Z,98.72
2023-01-23T15:01:36.034Z,98.68
2023-01-23T15:04:06.110Z,98.83
2023-01-23T15:06:36.155Z,98.88
2023-01-23T15:09:17.189Z,99.16
2023-01-23T15:11:45.283Z,99.14
2023-01-23T15:14:25.457Z,99.24
2023-01-23T15:16:59.025Z,99.27
2023-01-23T15:19:26.672Z,99.35
2023-01-23T15:22:25.671Z,99.57
2023-01-23T15:24:53.050Z,99.59
2023-01-23T15:27:36.929Z,99.68
2023-01-23T15:30:31.814Z,99.78
2023-01-23T15:33:06.188Z,99.92
2023-01-23T15:35:38.333Z,100.00
2023-01-23T15:38:08.683Z,100.00
2023-01-23T15:40:38.399Z,100.00
2023-01-23T15:43:11.068Z,100.00
2023-01-23T15:45:38.297Z,100.00
2023-01-23T15:48:05.884Z,100.00
2023-01-23T15:50:33.056Z,100.00
2023-01-23T15:53:00.149Z,100.00
2023-01-23T15:55:28.919Z,100.00
2023-01-23T15:57:56.665Z,100.00
2023-01-23T16:00:27.295Z,100.00
2023-01-23T16:02:57.355Z,100.00
2023-01-23T16:05:27.507Z,100.00
2023-01-23T16:07:55.825Z,100.00
2023-01-23T16:10:26.242Z,100.00
2023-01-23T16:12:55.868Z,100.00
2023-01-23T16:15:28.108Z,100.00
2023-01-23T16:17:55.531Z,100.00
2023-01-23T16:20:38.693Z,100.00
2023-01-23T16:23:15.654Z,100.00
2023-01-23T16:25:45.656Z,100.00
2023-01-23T16:28:19.311Z,100.00
2023-01-23T16:30:47.632Z,99.96
2023-01-23T16:33:15.329Z,100.00
2023-01-23T16:35:42.808Z,99.99
2023-01-23T16:38:30.199Z,99.92
2023-01-23T16:40:59.860Z,100.00
2023-01-23T16:43:27.626Z,100.00
2023-01-23T16:45:56.610Z,100.00
2023-01-23T16:48:27.708Z,100.00
2023-01-23T16:51:17.604Z,100.00
2023-01-23T16:53:52.463Z,100.00
2023-01-23T16:56:28.905Z,100.00
2023-01-23T16:58:56.289Z,99.83
2023-01-23T17:01:24.503Z,99.71
2023-01-23T17:03:58.705Z,100.00
2023-01-23T17:06:26.149Z,99.94
2023-01-23T17:08:53.858Z,99.76
2023-01-23T17:11:24.829Z,99.96
2023-01-23T17:13:58.767Z,100.00
2023-01-23T17:16:28.018Z,99.98
2023-01-23T17:18:57.697Z,99.99
2023-01-23T17:21:32.052Z,99.88
2023-01-23T17:23:59.234Z,99.83
2023-01-23T17:26:26.534Z,99.88
2023-01-23T17:28:53.949Z,99.57
2023-01-23T17:31:25.215Z,99.73
2023-01-23T17:33:52.895Z,99.87
2023-01-23T17:36:20.177Z,99.42
2023-01-23T17:38:47.707Z,99.64
2023-01-23T17:41:16.078Z,99.74
2023-01-23T17:43:48.498Z,99.73
2023-01-23T17:46:39.753Z,99.62
2023-01-23T17:49:31.364Z,99.42
2023-01-23T17:52:00.339Z,99.76
2023-01-23T17:54:27.714Z,99.60
2023-01-23T17:56:54.938Z,99.63
2023-01-23T17:59:22.138Z,99.26
2023-01-23T18:01:49.252Z,99.42
2023-01-23T18:04:19.336Z,99.60
2023-01-23T18:06:47.005Z,99.30
2023-01-23T18:09:14.458Z,99.21
2023-01-23T18:11:49.771Z,99.28
2023-01-23T18:14:33.752Z,99.36
2023-01-23T18:17:01.081Z,99.19
2023-01-23T18:19:28.364Z,99.25
2023-01-23T18:21:57.348Z,99.40
2023-01-23T18:24:30.633Z,99.14
2023-01-23T18:27:27.534Z,99.10
2023-01-23T18:30:03.755Z,99.40
2023-01-23T18:33:15.739Z,99.10
2023-01-23T18:35:54.964Z,99.25
2023-01-23T18:39:00.539Z,99.04
2023-01-23T18:41:28.985Z,99.29
2023-01-23T18:44:07.196Z,99.03
2023-01-23T18:46:34.430Z,98.98
2023-01-23T18:49:01.800Z,99.34
2023-01-23T18:51:54.815Z,99.23
2023-01-23T18:54:43.669Z,99.31
2023-01-23T18:57:32.295Z,99.10
2023-01-23T19:00:12.910Z,99.22
2023-01-23T19:02:50.709Z,99.00
2023-01-23T19:05:23.245Z,98.90
2023-01-23T19:07:50.864Z,99.14
2023-01-23T19:10:21.610Z,98.99
2023-01-23T19:12:54.228Z,98.89
2023-01-23T19:15:35.484Z,98.88
2023-01-23T19:18:08.547Z,98.95
2023-01-23T19:21:05.383Z,98.65
2023-01-23T19:23:51.926Z,98.73
2023-01-23T19:26:20.018Z,99.04
2023-01-23T19:28:47.458Z,98.51
2023-01-23T19:31:21.016Z,98.69
2023-01-23T19:33:49.155Z,98.65
2023-01-23T19:36:16.347Z,98.69
2023-01-23T19:38:43.611Z,98.44
2023-01-23T19:41:19.815Z,98.83
2023-01-23T19:43:52.310Z,98.89
2023-01-23T19:46:20.825Z,98.70
2023-01-23T19:48:48.199Z,98.67
2023-01-23T19:51:18.526Z,98.96
2023-01-23T19:53:46.609Z,99.23
2023-01-23T19:56:16.139Z,98.72
2023-01-23T19:58:43.291Z,98.92
2023-01-23T20:01:22.399Z,98.88
2023-01-23T20:03:50.190Z,98.85
2023-01-23T20:06:17.199Z,98.81
2023-01-23T20:08:44.326Z,98.30
2023-01-23T20:11:12.306Z,98.14
2023-01-23T20:13:43.137Z,98.52
2023-01-23T20:16:17.595Z,98.93
2023-01-23T20:18:48.260Z,98.48
2023-01-23T20:21:17.116Z,98.69
2023-01-23T20:23:48.313Z,98.57
2023-01-23T20:26:17.481Z,98.74
2023-01-23T20:28:48.297Z,98.91
2023-01-23T20:31:16.018Z,98.27
2023-01-23T20:33:43.199Z,98.56
2023-01-23T20:36:11.349Z,98.48
2023-01-23T20:38:39.906Z,98.47
2023-01-23T20:41:15.248Z,98.60
2023-01-23T20:43:43.485Z,98.54
2023-01-23T20:46:12.098Z,98.35
2023-01-23T20:48:41.903Z,98.49
2023-01-23T20:51:09.809Z,98.51
2023-01-23T20:53:39.718Z,98.59
2023-01-23T20:56:11.279Z,98.53
2023-01-23T20:59:00.151Z,98.50
2023-01-23T21:01:30.214Z,98.74
2023-01-23T21:03:57.363Z,98.57
2023-01-23T21:06:24.442Z,98.23
2023-01-23T21:08:51.546Z,98.16
2023-01-23T21:11:20.257Z,98.46
2023-01-23T21:13:53.753Z,98.28
2023-01-23T21:16:20.997Z,98.56
2023-01-23T21:18:48.469Z,98.50
2023-01-23T21:21:18.464Z,98.58
2023-01-23T21:23:49.007Z,98.44
2023-01-23T21:26:22.564Z,98.52
2023-01-23T21:28:51.019Z,98.54
2023-01-23T21:31:22.105Z,98.32
2023-01-23T21:33:50.039Z,98.69
2023-01-23T21:36:20.633Z,98.60
2023-01-23T21:38:48.248Z,98.28
2023-01-23T21:41:15.798Z,98.31
2023-01-23T21:43:43.037Z,98.34
2023-01-23T21:46:10.693Z,98.14
2023-01-23T21:48:37.910Z,98.36
2023-01-23T21:51:12.250Z,98.35
2023-01-23T21:53:42.862Z,98.34
2023-01-23T21:56:10.969Z,98.24
2023-01-23T21:58:38.198Z,98.14
2023-01-23T22:01:30.198Z,98.53
2023-01-23T22:04:09.315Z,98.23
2023-01-23T22:06:38.507Z,98.02
2023-01-23T22:09:07.744Z,97.96
2023-01-23T22:11:35.360Z,98.21
2023-01-23T22:14:02.800Z,97.96
2023-01-23T22:16:46.854Z,97.95
2023-01-23T22:19:16.803Z,98.22
2023-01-23T22:21:46.645Z,98.20
2023-01-23T22:24:15.340Z,98.35
2023-01-23T22:26:42.920Z,98.39
2023-01-23T22:29:12.338Z,98.08
2023-01-23T22:31:39.500Z,98.15
2023-01-23T22:34:06.640Z,98.04
2023-01-23T22:36:33.693Z,98.15
2023-01-23T22:39:00.901Z,97.92
2023-01-23T22:41:28.818Z,98.00
2023-01-23T22:43:56.891Z,97.81
2023-01-23T22:46:24.275Z,97.77
2023-01-23T22:48:51.915Z,97.46
2023-01-23T22:51:24.211Z,97.23
2023-01-23T22:53:52.453Z,97.47
2023-01-23T22:56:19.597Z,98.06
2023-01-23T22:58:47.781Z,97.46
2023-01-23T23:01:15.493Z,97.66
2023-01-23T23:03:43.269Z,97.55
2023-01-23T23:06:13.874Z,97.96
2023-01-23T23:08:41.254Z,97.83
2023-01-23T23:11:13.836Z,97.84
2023-01-23T23:13:41.289Z,97.90
2023-01-23T23:16:12.171Z,97.75
2023-01-23T23:18:39.505Z,97.71
2023-01-23T23:21:09.825Z,97.68
2023-01-23T23:23:37.116Z,97.92
2023-01-23T23:26:05.520Z,97.65
2023-01-23T23:28:32.991Z,97.35
2023-01-23T23:31:00.085Z,97.49
2023-01-23T23:33:27.847Z,97.55
2023-01-23T23:35:55.108Z,97.76
2023-01-23T23:38:22.343Z,97.40
2023-01-23T23:40:57.673Z,97.56
2023-01-23T23:43:25.005Z,97.52
2023-01-23T23:45:57.603Z,97.51
2023-01-23T23:48:26.050Z,97.52
2023-01-23T23:50:53.862Z,97.79
2023-01-23T23:53:21.127Z,97.61
2023-01-23T23:55:48.901Z,97.50
2023-01-23T23:58:16.352Z,97.56
